Time;durP1;ratioP1;P1;durP2;ratioP2;P2;SDS_P1;SDS_P2;PMS_P1;PMS_P2;Temp;Humidity;BMP_temperature;BMP_pressure;BME280_temperature;BME280_humidity;BME280_pressure;Samples;Min_cycle;Max_cycle;Signal;HPM_P1;HPM_P2
2023/09/07 00:00:32;;;;;;;10.68;5.45;;;16.10;90.20;;;;;;4947070;28;20697;-70
2023/09/07 00:02:59;;;;;;;15.70;5.22;;;16.00;90.40;;;;;;4947618;28;20750;-70
2023/09/07 00:05:27;;;;;;;10.35;6.03;;;16.00;90.50;;;;;;4964780;28;20055;-70
2023/09/07 00:07:54;;;;;;;9.65;6.38;;;16.00;90.60;;;;;;4964592;28;20113;-70
2023/09/07 00:10:21;;;;;;;10.77;6.50;;;16.00;91.00;;;;;;4947431;28;20062;-71
2023/09/07 00:12:48;;;;;;;12.38;6.13;;;15.90;91.20;;;;;;4965271;28;20074;-70
2023/09/07 00:15:15;;;;;;;9.27;5.97;;;16.00;91.60;;;;;;4971073;28;20507;-70
2023/09/07 00:17:41;;;;;;;10.98;5.97;;;16.00;91.50;;;;;;4966024;28;20129;-70
2023/09/07 00:20:14;;;;;;;11.90;6.78;;;15.90;91.90;;;;;;4965074;28;20732;-70
2023/09/07 00:22:40;;;;;;;10.82;6.50;;;15.90;92.40;;;;;;4959819;28;20074;-71
2023/09/07 00:25:08;;;;;;;13.68;7.35;;;15.90;92.70;;;;;;4958762;28;20121;-71
2023/09/07 00:27:36;;;;;;;12.63;7.10;;;15.80;92.70;;;;;;4942309;28;20046;-71
2023/09/07 00:30:09;;;;;;;11.43;7.45;;;15.80;93.00;;;;;;4950872;28;20070;-71
2023/09/07 00:32:37;;;;;;;16.63;7.82;;;15.80;92.90;;;;;;4965578;28;20081;-70
2023/09/07 00:35:05;;;;;;;14.48;7.85;;;15.70;93.30;;;;;;4969749;28;20152;-70
2023/09/07 00:37:33;;;;;;;15.07;8.18;;;15.70;93.40;;;;;;4958429;23;20085;-90
2023/09/07 00:40:00;;;;;;;14.05;7.93;;;15.70;93.70;;;;;;4974648;28;20077;-90
2023/09/07 00:42:27;;;;;;;15.75;8.43;;;15.70;93.90;;;;;;4981752;28;20054;-89
2023/09/07 00:44:54;;;;;;;15.57;8.35;;;15.60;94.00;;;;;;4973683;28;20046;-90
2023/09/07 00:47:22;;;;;;;18.45;8.93;;;15.60;94.60;;;;;;4967532;28;20097;-90
2023/09/07 00:49:50;;;;;;;14.25;8.82;;;15.60;94.10;;;;;;4975728;28;20198;-90
2023/09/07 00:52:18;;;;;;;15.10;8.98;;;15.60;94.50;;;;;;4972819;28;20594;-89
2023/09/07 00:54:45;;;;;;;17.17;9.05;;;15.50;94.70;;;;;;5006456;28;20054;-89
2023/09/07 00:57:12;;;;;;;16.38;9.25;;;15.50;94.90;;;;;;4981986;28;20058;-89
2023/09/07 00:59:39;;;;;;;18.77;10.02;;;15.50;94.70;;;;;;4983230;28;20509;-90
2023/09/07 01:02:06;;;;;;;17.48;9.32;;;15.50;95.00;;;;;;4981262;28;20062;-94
2023/09/07 01:04:34;;;;;;;18.00;9.95;;;15.40;95.20;;;;;;4980543;28;20050;-94
2023/09/07 01:07:17;;;;;;;20.00;10.52;;;15.40;95.50;;;;;;4979822;28;20042;-93
2023/09/07 01:09:46;;;;;;;22.05;9.65;;;15.40;95.60;;;;;;4979853;28;20062;-94
2023/09/07 01:12:15;;;;;;;18.27;10.45;;;15.40;95.50;;;;;;4980821;28;20068;-94
2023/09/07 01:14:42;;;;;;;17.42;10.32;;;15.30;95.80;;;;;;4980457;28;20050;-94
2023/09/07 01:17:10;;;;;;;24.85;10.70;;;15.30;95.70;;;;;;4982171;28;20066;-94
2023/09/07 01:19:39;;;;;;;19.10;10.90;;;15.30;95.60;;;;;;4983546;28;20223;-93
2023/09/07 01:22:10;;;;;;;18.67;10.65;;;15.20;96.10;;;;;;4983165;28;20269;-93
2023/09/07 01:24:38;;;;;;;17.77;10.93;;;15.20;96.40;;;;;;4978090;28;20535;-90
2023/09/07 01:27:06;;;;;;;27.45;11.75;;;15.20;96.50;;;;;;4970719;28;20050;-90
2023/09/07 01:29:33;;;;;;;21.65;10.52;;;15.20;96.50;;;;;;4970938;28;20054;-90
2023/09/07 01:32:00;;;;;;;22.25;11.60;;;15.20;96.90;;;;;;4970420;28;20042;-89
2023/09/07 01:34:29;;;;;;;33.03;12.32;;;15.10;97.00;;;;;;4967954;28;20054;-89
2023/09/07 01:36:58;;;;;;;20.90;12.13;;;15.20;97.90;;;;;;4985202;28;20051;-90
2023/09/07 01:39:26;;;;;;;21.00;11.57;;;15.10;97.50;;;;;;4968048;28;20050;-91
2023/09/07 01:41:57;;;;;;;31.05;12.90;;;15.10;97.40;;;;;;4971598;28;20053;-91
2023/09/07 01:44:25;;;;;;;27.08;12.40;;;15.10;98.40;;;;;;4979287;28;20164;-91
2023/09/07 01:46:53;;;;;;;26.63;11.73;;;15.10;98.30;;;;;;4971519;28;20442;-91
2023/09/07 01:49:21;;;;;;;32.10;11.73;;;15.00;98.20;;;;;;4972832;28;20050;-90
2023/09/07 01:51:52;;;;;;;21.40;11.77;;;15.00;98.00;;;;;;4981751;28;20129;-90
2023/09/07 01:54:24;;;;;;;21.75;11.55;;;15.00;98.20;;;;;;4968597;28;20508;-90
2023/09/07 01:56:51;;;;;;;20.85;11.85;;;15.00;97.90;;;;;;4987546;28;20468;-94
2023/09/07 01:59:18;;;;;;;23.67;11.77;;;15.00;98.20;;;;;;4984870;28;20049;-95
2023/09/07 02:01:45;;;;;;;21.10;11.70;;;14.90;98.00;;;;;;4982930;28;20042;-94
2023/09/07 02:04:18;;;;;;;23.55;12.02;;;14.90;97.80;;;;;;4979991;28;20058;-94
2023/09/07 02:06:47;;;;;;;19.30;11.50;;;14.90;98.00;;;;;;4978455;28;20050;-94
2023/09/07 02:09:18;;;;;;;27.50;12.15;;;14.90;98.30;;;;;;4979963;28;20054;-94
2023/09/07 02:11:50;;;;;;;20.70;11.63;;;14.80;98.00;;;;;;4996352;28;20054;-94
2023/09/07 02:14:18;;;;;;;25.98;12.18;;;14.80;98.10;;;;;;4979799;28;20054;-93
2023/09/07 02:16:45;;;;;;;23.10;12.57;;;14.80;98.10;;;;;;4979688;28;20050;-94
2023/09/07 02:19:12;;;;;;;27.65;11.85;;;14.70;98.00;;;;;;4979838;28;20054;-94
2023/09/07 02:25:07;;;;;;;24.95;12.00;;;14.70;98.10;;;;;;4959092;28;20047;-71
2023/09/07 02:27:35;;;;;;;19.35;11.23;;;14.70;98.10;;;;;;4958956;28;20070;-70
2023/09/07 02:30:04;;;;;;;24.48;12.05;;;14.60;98.10;;;;;;4949653;28;20101;-70
2023/09/07 02:35:08;;;;;;;19.17;12.75;;;14.60;98.80;;;;;;4966710;28;20051;-70
2023/09/07 02:37:36;;;;;;;26.05;12.15;;;14.60;99.00;;;;;;4968045;28;20144;-71
2023/09/07 02:40:07;;;;;;;24.25;13.52;;;14.60;99.10;;;;;;4975379;28;20142;-71
2023/09/07 02:42:34;;;;;;;25.17;12.05;;;14.50;99.00;;;;;;4956157;28;20054;-70
2023/09/07 02:45:01;;;;;;;30.52;13.77;;;14.50;99.50;;;;;;4959121;28;20458;-71
2023/09/07 02:47:28;;;;;;;24.58;12.73;;;14.50;99.70;;;;;;4972644;28;20114;-70
2023/09/07 02:49:55;;;;;;;24.73;12.60;;;14.50;99.30;;;;;;4956043;28;20057;-70
2023/09/07 02:52:22;;;;;;;22.90;11.70;;;14.50;99.20;;;;;;4970273;28;20063;-70
2023/09/07 02:54:49;;;;;;;24.92;12.18;;;14.40;99.40;;;;;;4955692;28;20056;-70
2023/09/07 02:57:16;;;;;;;23.30;12.93;;;14.40;99.10;;;;;;4975812;28;20054;-70
2023/09/07 02:59:43;;;;;;;22.42;11.95;;;14.40;99.30;;;;;;4961228;28;20130;-70
2023/09/07 03:02:09;;;;;;;24.88;12.55;;;14.40;99.30;;;;;;4980177;28;20136;-70
2023/09/07 03:04:36;;;;;;;32.63;13.25;;;14.40;99.20;;;;;;4959606;28;20157;-70
2023/09/07 03:07:03;;;;;;;22.65;12.73;;;14.30;99.20;;;;;;4974370;28;20172;-70
2023/09/07 03:09:30;;;;;;;22.73;12.65;;;14.30;99.80;;;;;;4959000;28;20043;-70
2023/09/07 03:11:57;;;;;;;27.38;13.20;;;14.30;99.70;;;;;;4983337;28;20057;-70
2023/09/07 03:15:20;;;;;;;23.15;12.73;;;14.30;99.90;;;;;;4973820;28;20050;-71
2023/09/07 03:17:48;;;;;;;25.58;12.05;;;14.30;99.70;;;;;;4954828;28;20054;-77
2023/09/07 03:20:16;;;;;;;23.08;12.63;;;14.30;99.90;;;;;;4963295;28;20125;-77
2023/09/07 03:22:44;;;;;;;23.80;13.50;;;14.30;100.00;;;;;;4960424;28;21386;-77
2023/09/07 03:25:13;;;;;;;31.90;13.45;;;14.30;100.00;;;;;;4983015;28;20051;-77
2023/09/07 03:27:41;;;;;;;30.38;13.98;;;14.20;100.00;;;;;;4977055;28;20460;-77
2023/09/07 03:30:10;;;;;;;27.17;14.60;;;14.20;100.00;;;;;;4971024;28;20098;-71
2023/09/07 03:32:37;;;;;;;27.13;14.27;;;14.20;100.00;;;;;;4956229;28;20046;-70
2023/09/07 03:35:09;;;;;;;28.17;14.27;;;14.20;100.00;;;;;;4952556;28;20506;-70
2023/09/07 03:37:37;;;;;;;29.90;15.77;;;14.20;100.00;;;;;;4955480;28;20058;-71
2023/09/07 03:40:05;;;;;;;29.23;14.32;;;14.30;100.00;;;;;;4957084;28;20050;-70
2023/09/07 03:42:32;;;;;;;28.88;14.90;;;14.30;100.00;;;;;;4976424;28;20694;-71
2023/09/07 03:45:00;;;;;;;29.52;15.35;;;14.30;100.00;;;;;;4955645;28;20080;-70
2023/09/07 03:47:29;;;;;;;32.60;16.92;;;14.30;100.00;;;;;;4981935;28;20125;-71
2023/09/07 03:49:57;;;;;;;35.20;15.73;;;14.40;100.00;;;;;;4960784;28;20078;-71
2023/09/07 03:52:26;;;;;;;40.63;17.08;;;14.40;100.00;;;;;;4966039;28;20066;-71
2023/09/07 03:54:57;;;;;;;36.05;17.40;;;14.50;100.00;;;;;;4976695;28;20046;-71
2023/09/07 03:57:25;;;;;;;35.00;16.20;;;14.60;100.00;;;;;;4958752;28;20067;-70
2023/09/07 03:59:52;;;;;;;35.08;17.92;;;14.70;100.00;;;;;;4964068;28;20116;-71
2023/09/07 04:02:19;;;;;;;39.10;18.42;;;14.70;100.00;;;;;;4954774;28;20062;-70
2023/09/07 04:04:51;;;;;;;39.22;17.45;;;14.80;100.00;;;;;;4976556;28;20050;-70
2023/09/07 04:07:18;;;;;;;49.10;19.60;;;14.80;100.00;;;;;;4955267;28;20449;-71
2023/09/07 04:09:45;;;;;;;47.08;19.80;;;14.90;100.00;;;;;;4969476;28;20062;-71
2023/09/07 04:12:12;;;;;;;45.95;18.75;;;14.90;100.00;;;;;;4970152;28;20116;-71
2023/09/07 04:14:40;;;;;;;38.63;19.88;;;15.00;100.00;;;;;;4958098;28;20101;-71
2023/09/07 04:17:07;;;;;;;40.58;18.75;;;15.00;100.00;;;;;;4956196;28;20062;-77
2023/09/07 04:19:34;;;;;;;40.45;19.65;;;15.10;100.00;;;;;;4949875;28;20778;-78
2023/09/07 04:22:01;;;;;;;50.45;20.17;;;15.10;100.00;;;;;;4972562;28;20136;-76
2023/09/07 04:24:28;;;;;;;48.40;20.00;;;15.20;100.00;;;;;;4977468;28;20062;-76
2023/09/07 04:30:26;;;;;;;47.40;19.88;;;15.20;100.00;;;;;;4956530;28;20059;-77
2023/09/07 04:32:53;;;;;;;43.63;19.63;;;15.30;100.00;;;;;;4952460;28;20051;-77
2023/09/07 04:35:20;;;;;;;53.05;19.83;;;15.30;100.00;;;;;;4953700;28;20064;-76
2023/09/07 04:37:47;;;;;;;48.40;19.90;;;15.40;100.00;;;;;;4936324;28;20046;-76
2023/09/07 04:40:14;;;;;;;50.33;19.58;;;15.40;100.00;;;;;;4938181;28;20043;-77
2023/09/07 04:42:41;;;;;;;57.88;21.75;;;15.50;100.00;;;;;;4956749;28;20800;-76
2023/09/07 04:45:08;;;;;;;45.80;20.88;;;15.50;100.00;;;;;;4934844;28;20054;-76
2023/09/07 04:47:36;;;;;;;50.78;21.48;;;15.50;100.00;;;;;;4954007;28;20063;-75
2023/09/07 04:50:04;;;;;;;45.70;20.90;;;15.60;100.00;;;;;;4957566;28;20503;-77
2023/09/07 04:52:31;;;;;;;47.92;20.83;;;15.60;100.00;;;;;;4941972;28;20435;-70
2023/09/07 04:54:58;;;;;;;54.63;20.80;;;15.70;100.00;;;;;;4941666;28;20055;-70
2023/09/07 04:57:25;;;;;;;48.97;21.70;;;15.70;100.00;;;;;;4936954;28;20146;-71
2023/09/07 04:59:52;;;;;;;48.63;21.35;;;15.80;100.00;;;;;;4954560;28;20489;-72
2023/09/07 05:02:19;;;;;;;53.65;21.55;;;15.80;100.00;;;;;;4941787;28;20141;-71
2023/09/07 05:04:48;;;;;;;47.55;20.60;;;15.90;100.00;;;;;;4967683;23;20061;-92
2023/09/07 05:07:15;;;;;;;51.00;22.38;;;15.90;100.00;;;;;;4961338;28;20134;-93
2023/09/07 05:09:43;;;;;;;47.20;21.17;;;15.90;100.00;;;;;;4953506;28;20054;-92
2023/09/07 05:12:14;;;;;;;46.70;20.30;;;16.00;100.00;;;;;;4939669;28;20055;-91
2023/09/07 05:14:43;;;;;;;49.58;20.85;;;16.00;100.00;;;;;;4955286;28;20050;-93
2023/09/07 05:17:11;;;;;;;48.85;21.15;;;16.10;100.00;;;;;;4959434;28;20476;-94
2023/09/07 05:19:38;;;;;;;45.67;20.88;;;16.10;100.00;;;;;;4958279;28;20058;-90
2023/09/07 05:22:08;;;;;;;49.03;20.30;;;16.20;100.00;;;;;;4951967;28;20056;-91
2023/09/07 05:24:45;;;;;;;45.63;20.55;;;16.30;100.00;;;;;;4948956;28;20055;-93
2023/09/07 05:27:13;;;;;;;41.50;18.60;;;16.30;100.00;;;;;;4960054;28;20061;-92
2023/09/07 05:29:40;;;;;;;46.10;20.80;;;16.40;100.00;;;;;;4950720;28;20451;-92
2023/09/07 05:32:10;;;;;;;45.58;19.63;;;16.40;100.00;;;;;;4960101;28;20404;-91
2023/09/07 05:34:37;;;;;;;49.08;20.77;;;16.50;100.00;;;;;;4953147;28;20168;-92
2023/09/07 05:37:04;;;;;;;51.80;21.23;;;16.50;100.00;;;;;;4950999;29;20081;-92
2023/09/07 05:39:31;;;;;;;40.85;19.45;;;16.50;100.00;;;;;;4957196;28;20054;-92
2023/09/07 05:41:58;;;;;;;45.00;19.38;;;16.60;100.00;;;;;;4948303;28;20551;-91
2023/09/07 05:44:25;;;;;;;55.38;20.02;;;16.60;100.00;;;;;;4956411;28;20110;-92
2023/09/07 05:46:54;;;;;;;54.72;21.00;;;16.70;100.00;;;;;;4951946;28;20070;-92
2023/09/07 05:49:21;;;;;;;46.97;20.23;;;16.70;100.00;;;;;;4949094;28;20082;-91
2023/09/07 05:51:51;;;;;;;47.58;19.65;;;16.70;100.00;;;;;;4954851;28;20050;-93
2023/09/07 05:54:23;;;;;;;42.17;19.90;;;16.80;100.00;;;;;;4956850;28;20046;-92
2023/09/07 05:56:51;;;;;;;49.40;20.45;;;16.80;100.00;;;;;;4967886;28;20455;-91
2023/09/07 05:59:18;;;;;;;40.92;18.55;;;16.90;100.00;;;;;;4948134;28;20047;-92
2023/09/07 06:01:45;;;;;;;48.13;20.15;;;16.90;100.00;;;;;;4951705;28;20054;-92
2023/09/07 06:04:12;;;;;;;41.38;20.08;;;16.90;100.00;;;;;;4947063;28;20086;-91
2023/09/07 06:06:40;;;;;;;48.08;21.33;;;16.90;100.00;;;;;;4957670;28;20157;-92
2023/09/07 06:09:07;;;;;;;46.50;21.08;;;17.00;100.00;;;;;;4944935;28;20063;-92
2023/09/07 06:11:34;;;;;;;47.20;20.52;;;17.00;100.00;;;;;;4944670;28;20062;-92
2023/09/07 06:14:02;;;;;;;43.13;20.45;;;17.10;100.00;;;;;;4954474;28;20055;-92
2023/09/07 06:16:29;;;;;;;46.20;21.65;;;17.20;100.00;;;;;;4955393;28;20050;-92
2023/09/07 06:18:56;;;;;;;51.33;21.73;;;17.20;100.00;;;;;;4954615;28;20054;-91
2023/09/07 06:21:24;;;;;;;44.42;20.38;;;17.30;100.00;;;;;;4962300;28;20484;-92
2023/09/07 06:23:51;;;;;;;45.85;21.42;;;17.40;100.00;;;;;;4949388;28;20059;-92
2023/09/07 06:26:19;;;;;;;51.17;21.05;;;17.40;100.00;;;;;;4944742;28;20058;-91
2023/09/07 06:28:46;;;;;;;50.15;22.52;;;17.50;100.00;;;;;;4950052;28;20451;-91
2023/09/07 06:31:13;;;;;;;47.60;21.35;;;17.60;100.00;;;;;;4951289;28;20407;-92
2023/09/07 06:33:43;;;;;;;49.15;21.67;;;17.60;99.80;;;;;;4947564;28;20086;-92
2023/09/07 06:36:12;;;;;;;47.90;21.17;;;17.70;99.30;;;;;;4975441;28;20125;-92
2023/09/07 06:38:40;;;;;;;54.50;22.55;;;17.70;98.80;;;;;;4950833;28;20073;-90
2023/09/07 06:41:09;;;;;;;50.35;22.73;;;17.80;98.90;;;;;;4953509;28;20535;-91
2023/09/07 06:43:36;;;;;;;52.38;21.92;;;17.80;98.60;;;;;;4952864;28;20201;-91
2023/09/07 06:46:07;;;;;;;46.45;22.23;;;17.90;98.30;;;;;;4949525;28;20456;-91
2023/09/07 06:48:35;;;;;;;47.72;21.90;;;17.90;98.20;;;;;;4946154;28;20054;-92
2023/09/07 06:51:07;;;;;;;43.70;20.58;;;17.90;97.90;;;;;;4949790;28;20062;-92
2023/09/07 06:53:34;;;;;;;44.13;20.85;;;18.00;97.70;;;;;;4944721;28;20149;-92
2023/09/07 06:56:21;;;;;;;50.15;22.40;;;18.00;97.90;;;;;;4955821;28;20043;-91
2023/09/07 06:58:48;;;;;;;49.30;23.08;;;18.10;97.60;;;;;;4952955;28;20388;-91
2023/09/07 07:01:15;;;;;;;46.42;21.33;;;18.20;97.20;;;;;;4954228;28;20118;-91
2023/09/07 07:03:42;;;;;;;41.95;21.52;;;18.20;96.90;;;;;;4967835;28;20523;-91
2023/09/07 07:06:10;;;;;;;41.22;21.23;;;18.30;96.80;;;;;;4973775;28;20050;-91
2023/09/07 07:08:37;;;;;;;46.05;21.77;;;18.30;96.20;;;;;;4956228;28;20445;-92
2023/09/07 07:11:04;;;;;;;47.78;22.75;;;18.30;96.40;;;;;;4955779;28;20114;-93
2023/09/07 07:13:31;;;;;;;46.40;20.23;;;18.40;96.00;;;;;;4955474;28;20054;-92
2023/09/07 07:15:58;;;;;;;43.38;21.40;;;18.40;95.90;;;;;;4949904;28;20650;-93
2023/09/07 07:18:25;;;;;;;47.28;21.52;;;18.50;95.80;;;;;;4950282;28;20081;-93
2023/09/07 07:20:52;;;;;;;40.92;21.33;;;18.60;95.30;;;;;;4953679;29;20485;-93
2023/09/07 07:23:19;;;;;;;44.05;20.38;;;18.70;95.10;;;;;;4950019;28;20070;-91
2023/09/07 07:25:45;;;;;;;48.33;21.55;;;18.70;95.10;;;;;;4963255;28;20395;-91
2023/09/07 07:28:12;;;;;;;45.25;22.35;;;18.90;95.30;;;;;;4957329;28;20063;-92
2023/09/07 07:30:40;;;;;;;43.08;20.67;;;19.10;94.30;;;;;;4956151;28;20153;-92
2023/09/07 07:33:07;;;;;;;49.03;20.92;;;19.30;93.70;;;;;;4953501;28;20055;-90
2023/09/07 07:35:36;;;;;;;46.83;21.58;;;19.40;92.60;;;;;;4930285;28;20055;-91
2023/09/07 07:38:13;;;;;;;38.65;20.70;;;19.50;92.20;;;;;;4952402;28;20364;-91
2023/09/07 07:40:46;;;;;;;41.22;22.17;;;19.60;92.50;;;;;;4957028;28;20051;-91
2023/09/07 07:43:22;;;;;;;38.20;19.80;;;19.70;92.10;;;;;;4961414;28;20059;-92
2023/09/07 07:45:53;;;;;;;45.47;21.88;;;19.80;91.50;;;;;;4959455;28;20070;-91
2023/09/07 07:48:22;;;;;;;42.53;20.92;;;19.90;91.20;;;;;;4957004;28;20055;-91
2023/09/07 07:50:50;;;;;;;44.70;22.90;;;20.00;91.70;;;;;;4942921;28;20066;-92
2023/09/07 07:53:25;;;;;;;42.47;20.47;;;20.20;90.80;;;;;;4958818;28;20050;-92
2023/09/07 07:56:01;;;;;;;35.28;20.33;;;20.40;90.00;;;;;;4940419;28;20291;-91
2023/09/07 07:58:28;;;;;;;41.70;20.98;;;20.60;89.80;;;;;;4943724;29;20075;-89
2023/09/07 08:00:58;;;;;;;46.75;20.33;;;20.90;88.20;;;;;;4954211;28;20070;-89
2023/09/07 08:03:29;;;;;;;31.17;17.35;;;21.00;85.40;;;;;;4951363;29;20141;-90
2023/09/07 08:06:06;;;;;;;35.00;19.60;;;20.80;85.80;;;;;;4959679;28;20050;-90
2023/09/07 08:08:33;;;;;;;33.55;19.13;;;20.60;86.50;;;;;;4953702;28;20090;-90
2023/09/07 08:11:05;;;;;;;33.65;19.42;;;20.80;88.20;;;;;;4953791;28;20090;-89
2023/09/07 08:13:35;;;;;;;33.27;19.27;;;21.00;86.80;;;;;;4953067;28;20403;-89
2023/09/07 08:16:03;;;;;;;34.10;18.90;;;21.50;86.20;;;;;;4955839;28;20067;-89
2023/09/07 08:18:33;;;;;;;32.65;18.13;;;22.00;84.70;;;;;;4955676;28;20043;-90
2023/09/07 08:21:06;;;;;;;27.95;17.42;;;22.20;84.90;;;;;;4951459;28;20058;-90
2023/09/07 08:23:33;;;;;;;29.45;17.88;;;22.80;81.60;;;;;;4947251;28;20058;-90
2023/09/07 08:26:00;;;;;;;30.45;16.52;;;23.20;79.50;;;;;;4931628;28;20512;-90
2023/09/07 08:28:28;;;;;;;29.30;16.58;;;23.40;78.60;;;;;;4967160;28;20039;-90
2023/09/07 08:30:58;;;;;;;47.88;19.63;;;23.90;78.90;;;;;;4957503;28;20061;-90
2023/09/07 08:33:30;;;;;;;40.33;17.13;;;24.20;77.10;;;;;;4952439;28;20054;-90
2023/09/07 08:35:57;;;;;;;36.88;17.10;;;24.50;76.60;;;;;;4940225;28;20418;-88
2023/09/07 08:38:27;;;;;;;28.25;15.52;;;24.90;75.80;;;;;;4943791;29;20118;-88
2023/09/07 08:41:00;;;;;;;20.13;13.60;;;25.50;73.40;;;;;;4956428;28;20423;-88
2023/09/07 08:43:32;;;;;;;27.70;17.27;;;25.80;71.30;;;;;;4953338;28;20047;-87
2023/09/07 08:46:10;;;;;;;23.17;15.00;;;26.00;71.00;;;;;;4954884;28;20632;-87
2023/09/07 08:48:39;;;;;;;23.80;15.82;;;26.20;70.20;;;;;;4949355;28;20524;-87
2023/09/07 08:51:07;;;;;;;26.48;15.85;;;26.40;69.10;;;;;;4947569;28;20675;-88
2023/09/07 08:53:36;;;;;;;22.05;15.82;;;26.60;68.90;;;;;;4957109;28;20055;-88
2023/09/07 08:56:03;;;;;;;20.50;14.90;;;26.80;68.40;;;;;;4953136;28;20484;-88
2023/09/07 08:58:31;;;;;;;22.05;14.95;;;27.20;66.70;;;;;;4950702;28;20134;-89
2023/09/07 09:00:59;;;;;;;22.15;14.63;;;26.80;67.80;;;;;;4953326;28;20480;-89
2023/09/07 09:03:30;;;;;;;27.13;15.98;;;26.90;67.50;;;;;;4961737;28;20054;-89
2023/09/07 09:05:57;;;;;;;21.50;14.93;;;27.20;67.40;;;;;;4966772;28;20089;-89
2023/09/07 09:08:24;;;;;;;21.75;15.52;;;27.30;66.00;;;;;;4955935;28;20314;-89
2023/09/07 09:11:03;;;;;;;24.70;15.75;;;27.50;65.30;;;;;;4956053;28;20069;-89
2023/09/07 09:13:31;;;;;;;22.45;14.45;;;27.60;65.10;;;;;;4952823;28;20138;-91
2023/09/07 09:16:03;;;;;;;23.60;15.77;;;27.90;65.40;;;;;;4965601;28;20054;-90
2023/09/07 09:18:30;;;;;;;24.52;16.50;;;28.20;62.70;;;;;;4956436;28;20047;-90
2023/09/07 09:21:02;;;;;;;24.75;15.60;;;28.30;62.00;;;;;;4956962;28;20456;-91
2023/09/07 09:23:38;;;;;;;25.02;15.00;;;28.40;63.20;;;;;;4960340;28;20055;-91
2023/09/07 09:26:05;;;;;;;23.55;15.27;;;29.30;61.10;;;;;;4952157;28;20790;-91
2023/09/07 09:28:33;;;;;;;27.52;15.40;;;29.60;60.80;;;;;;4958633;28;20058;-91
2023/09/07 09:31:02;;;;;;;24.52;15.82;;;29.80;59.40;;;;;;4944902;28;20055;-91
2023/09/07 09:33:33;;;;;;;32.63;15.20;;;30.20;59.80;;;;;;4946911;28;20058;-91
2023/09/07 09:36:02;;;;;;;23.35;16.45;;;30.90;58.00;;;;;;4939417;28;20064;-92
2023/09/07 09:38:33;;;;;;;23.92;17.08;;;30.60;58.30;;;;;;4967411;28;20106;-91
2023/09/07 09:41:04;;;;;;;27.20;16.98;;;31.50;57.70;;;;;;4961543;28;20047;-91
2023/09/07 09:43:31;;;;;;;28.13;17.65;;;31.40;55.40;;;;;;4949214;28;20069;-91
2023/09/07 09:46:01;;;;;;;58.25;20.35;;;31.80;56.20;;;;;;4956305;28;20057;-91
2023/09/07 09:48:28;;;;;;;22.23;15.88;;;32.20;54.70;;;;;;4950869;28;20054;-91
2023/09/07 09:50:57;;;;;;;24.95;16.58;;;31.80;56.10;;;;;;4944898;28;20102;-91
2023/09/07 09:53:26;;;;;;;26.45;17.52;;;32.60;54.10;;;;;;4952509;28;20070;-92
2023/09/07 09:55:54;;;;;;;22.85;16.13;;;33.00;52.70;;;;;;4971699;28;20142;-91
2023/09/07 09:58:22;;;;;;;24.05;16.00;;;33.40;52.80;;;;;;4967976;28;20054;-91
2023/09/07 10:01:00;;;;;;;21.45;15.48;;;33.80;51.10;;;;;;4949657;28;20118;-89
2023/09/07 10:03:33;;;;;;;29.52;18.05;;;34.30;49.90;;;;;;4947304;28;20062;-89
2023/09/07 10:06:10;;;;;;;27.90;17.00;;;34.30;50.50;;;;;;4953464;28;20065;-88
2023/09/07 10:08:37;;;;;;;25.95;18.65;;;33.70;51.10;;;;;;4941932;28;20516;-89
2023/09/07 10:11:10;;;;;;;22.52;16.05;;;34.70;49.60;;;;;;4947176;28;20480;-88
2023/09/07 10:13:40;;;;;;;22.52;16.40;;;34.90;49.50;;;;;;4955468;28;20055;-89
2023/09/07 10:16:08;;;;;;;25.92;17.73;;;35.30;48.10;;;;;;4947765;28;20051;-88
2023/09/07 10:18:39;;;;;;;27.23;18.08;;;35.60;47.90;;;;;;4955934;28;20128;-88
2023/09/07 10:21:06;;;;;;;26.63;17.08;;;35.40;47.80;;;;;;4952097;28;20078;-89
2023/09/07 10:23:38;;;;;;;24.38;17.15;;;35.70;47.80;;;;;;4948963;28;20069;-89
2023/09/07 10:26:10;;;;;;;27.88;17.40;;;36.00;47.10;;;;;;4960389;28;20050;-88
2023/09/07 10:28:37;;;;;;;26.50;16.42;;;36.40;47.40;;;;;;4949568;28;20051;-91
2023/09/07 10:31:14;;;;;;;27.30;17.10;;;36.40;46.00;;;;;;4950549;28;20082;-90
2023/09/07 10:33:41;;;;;;;22.40;15.98;;;36.40;46.30;;;;;;4950958;28;20055;-89
2023/09/07 10:36:23;;;;;;;27.60;17.55;;;36.30;45.90;;;;;;4950390;28;20089;-90
2023/09/07 10:38:54;;;;;;;23.63;16.25;;;35.70;46.50;;;;;;4954139;28;20054;-89
2023/09/07 10:41:21;;;;;;;29.00;17.80;;;35.40;46.50;;;;;;4946291;28;20405;-91
2023/09/07 10:43:54;;;;;;;28.35;16.80;;;34.90;48.50;;;;;;4969396;28;20389;-90
2023/09/07 10:46:23;;;;;;;26.40;15.38;;;34.70;48.10;;;;;;4944504;28;20057;-90
2023/09/07 10:48:52;;;;;;;22.05;15.50;;;34.80;48.70;;;;;;4953064;28;20049;-89
2023/09/07 10:51:20;;;;;;;24.33;15.13;;;35.20;46.50;;;;;;4960058;28;20134;-90
2023/09/07 10:53:47;;;;;;;24.08;16.00;;;34.80;46.50;;;;;;4966566;28;20051;-89
2023/09/07 10:56:17;;;;;;;24.52;15.90;;;35.00;46.80;;;;;;4948064;28;20058;-88
2023/09/07 10:58:45;;;;;;;22.98;14.23;;;35.10;46.40;;;;;;4952564;28;20142;-90
2023/09/07 11:01:17;;;;;;;22.70;14.95;;;35.30;45.80;;;;;;4942219;28;20145;-88
2023/09/07 11:03:46;;;;;;;21.90;13.70;;;35.10;45.50;;;;;;4956913;28;20105;-89
2023/09/07 11:06:22;;;;;;;22.10;15.40;;;35.20;45.80;;;;;;4967980;28;20138;-89
2023/09/07 11:08:54;;;;;;;24.00;15.05;;;35.60;45.50;;;;;;4952402;28;20059;-90
2023/09/07 11:11:22;;;;;;;30.05;14.13;;;35.80;43.40;;;;;;4951652;28;20059;-90
2023/09/07 11:13:50;;;;;;;22.52;14.18;;;35.80;43.70;;;;;;4965292;28;20100;-90
2023/09/07 11:16:17;;;;;;;22.55;13.05;;;35.80;44.50;;;;;;4927459;29;20110;-88
2023/09/07 11:18:46;;;;;;;25.85;14.20;;;35.70;44.40;;;;;;4949926;28;20145;-88
2023/09/07 11:21:19;;;;;;;24.27;12.38;;;35.70;44.30;;;;;;4970691;28;20054;-90
2023/09/07 11:23:49;;;;;;;20.58;13.45;;;35.40;44.20;;;;;;4946805;28;20054;-89
2023/09/07 11:26:19;;;;;;;23.88;12.90;;;35.40;44.30;;;;;;4932532;28;20082;-89
2023/09/07 11:28:50;;;;;;;17.58;12.05;;;35.50;44.30;;;;;;4957258;28;20077;-89
2023/09/07 11:31:21;;;;;;;17.58;12.18;;;36.00;43.40;;;;;;4948076;28;20139;-90
2023/09/07 11:33:57;;;;;;;19.33;11.50;;;36.10;42.50;;;;;;4939162;28;20127;-89
2023/09/07 11:36:25;;;;;;;19.80;10.90;;;36.10;42.40;;;;;;4935006;28;20055;-89
2023/09/07 11:38:55;;;;;;;17.70;10.60;;;36.10;42.80;;;;;;4950719;28;20768;-90
2023/09/07 11:41:26;;;;;;;15.90;10.68;;;36.50;42.00;;;;;;4960894;28;20051;-89
2023/09/07 11:43:53;;;;;;;19.52;10.43;;;36.80;41.30;;;;;;4945775;28;20051;-89
2023/09/07 11:46:20;;;;;;;15.52;9.93;;;37.30;40.20;;;;;;4949922;28;20061;-89
2023/09/07 11:48:47;;;;;;;22.10;10.80;;;37.30;40.20;;;;;;4944320;28;20121;-89
2023/09/07 11:51:14;;;;;;;17.40;11.15;;;36.70;40.30;;;;;;4943784;28;20131;-89
2023/09/07 11:53:44;;;;;;;17.27;10.82;;;37.30;40.50;;;;;;4957194;28;20047;-89
2023/09/07 11:56:11;;;;;;;14.68;10.15;;;37.60;40.30;;;;;;4946102;28;20069;-89
2023/09/07 11:58:38;;;;;;;14.90;10.10;;;37.50;39.80;;;;;;4953529;28;20112;-90
2023/09/07 12:01:08;;;;;;;16.73;9.10;;;37.90;40.00;;;;;;4948745;29;20055;-90
2023/09/07 12:03:35;;;;;;;16.30;8.85;;;38.00;39.40;;;;;;4949926;28;20055;-90
2023/09/07 12:06:03;;;;;;;21.17;10.05;;;38.60;39.10;;;;;;4950481;28;20411;-90
2023/09/07 12:08:30;;;;;;;13.63;9.25;;;39.00;38.70;;;;;;4955656;28;20082;-90
2023/09/07 12:10:57;;;;;;;11.75;8.90;;;38.80;39.30;;;;;;4956603;28;20453;-90
2023/09/07 12:13:25;;;;;;;18.00;9.60;;;38.70;38.60;;;;;;4966286;28;20062;-89
2023/09/07 12:15:52;;;;;;;13.15;8.57;;;38.80;38.90;;;;;;4956423;28;20129;-90
2023/09/07 12:18:23;;;;;;;16.25;8.02;;;39.00;38.70;;;;;;4953240;28;20058;-89
2023/09/07 12:20:53;;;;;;;12.50;8.98;;;39.00;38.30;;;;;;4954734;28;20054;-89
2023/09/07 12:23:20;;;;;;;12.52;8.65;;;39.50;38.40;;;;;;4937331;28;20114;-90
2023/09/07 12:25:51;;;;;;;13.95;8.63;;;40.30;38.10;;;;;;4952004;28;20051;-90
2023/09/07 12:28:18;;;;;;;17.70;9.27;;;40.20;37.80;;;;;;4950525;28;20607;-90
2023/09/07 12:30:45;;;;;;;12.68;7.95;;;40.80;37.10;;;;;;4956520;28;20452;-92
2023/09/07 12:33:13;;;;;;;11.98;8.50;;;41.00;36.70;;;;;;4961192;28;20043;-94
2023/09/07 12:35:44;;;;;;;11.88;8.00;;;40.80;35.90;;;;;;4956822;28;20643;-92
2023/09/07 12:38:17;;;;;;;11.07;7.75;;;40.50;37.10;;;;;;4933145;28;20484;-93
2023/09/07 12:40:48;;;;;;;12.10;7.72;;;40.90;36.60;;;;;;4972711;28;20054;-89
2023/09/07 12:43:15;;;;;;;19.88;6.97;;;41.00;35.80;;;;;;4947281;28;20059;-88